createdAt,value
2023-05-15T00:00:07.251Z,100.00
2023-05-15T00:03:15.002Z,100.00
2023-05-15T00:06:18.725Z,100.00
2023-05-15T00:09:21.416Z,100.00
2023-05-15T00:12:24.750Z,100.00
2023-05-15T00:15:27.802Z,100.00
2023-05-15T00:18:31.737Z,100.00
2023-05-15T00:21:34.421Z,100.00
2023-05-15T00:24:37.490Z,100.00
2023-05-15T00:27:40.212Z,100.00
2023-05-15T00:30:43.330Z,100.00
2023-05-15T00:33:46.159Z,100.00
2023-05-15T00:36:49.752Z,100.00
2023-05-15T00:39:52.518Z,100.00
2023-05-15T00:42:56.340Z,100.00
2023-05-15T00:46:00.556Z,100.00
2023-05-15T00:49:04.932Z,100.00
2023-05-15T00:52:08.887Z,100.00
2023-05-15T00:55:12.088Z,100.00
2023-05-15T00:58:21.587Z,100.00
2023-05-15T01:01:26.782Z,100.00
2023-05-15T01:04:29.626Z,100.00
2023-05-15T01:07:40.908Z,100.00
2023-05-15T01:10:45.971Z,100.00
2023-05-15T01:13:49.019Z,100.00
2023-05-15T01:16:51.829Z,100.00
2023-05-15T01:19:58.531Z,100.00
2023-05-15T01:23:20.321Z,100.00
2023-05-15T01:26:35.670Z,100.00
2023-05-15T01:29:48.111Z,100.00
2023-05-15T01:33:34.036Z,100.00
2023-05-15T01:36:43.331Z,100.00
2023-05-15T01:39:50.730Z,100.00
2023-05-15T01:43:00.987Z,100.00
2023-05-15T01:46:06.165Z,100.00
2023-05-15T01:49:12.481Z,100.00
2023-05-15T01:52:31.118Z,100.00
2023-05-15T01:55:34.910Z,100.00
2023-05-15T01:58:40.036Z,100.00
2023-05-15T02:01:45.257Z,100.00
2023-05-15T02:04:49.736Z,100.00
2023-05-15T02:07:53.147Z,100.00
2023-05-15T02:10:59.537Z,100.00
2023-05-15T02:14:05.026Z,100.00
2023-05-15T02:17:08.426Z,100.00
2023-05-15T02:20:11.729Z,100.00
2023-05-15T02:23:14.533Z,100.00
2023-05-15T02:26:48.894Z,100.00
2023-05-15T02:30:04.684Z,100.00
2023-05-15T02:33:32.055Z,100.00
2023-05-15T02:36:40.691Z,100.00
2023-05-15T02:39:46.312Z,100.00
2023-05-15T02:42:50.150Z,100.00
2023-05-15T02:45:54.598Z,100.00
2023-05-15T02:48:58.148Z,100.00
2023-05-15T02:52:01.609Z,100.00
2023-05-15T02:55:04.885Z,100.00
2023-05-15T02:58:08.546Z,100.00
2023-05-15T03:01:11.284Z,100.00
2023-05-15T03:04:17.349Z,100.00
2023-05-15T03:07:20.211Z,100.00
2023-05-15T03:10:24.458Z,100.00
2023-05-15T03:13:27.148Z,100.00
2023-05-15T03:16:30.191Z,100.00
2023-05-15T03:19:32.985Z,100.00
2023-05-15T03:22:36.036Z,100.00
2023-05-15T03:25:38.873Z,100.00
2023-05-15T03:28:42.361Z,100.00
2023-05-15T03:31:45.346Z,100.00
2023-05-15T03:34:48.349Z,100.00
2023-05-15T03:37:51.091Z,100.00
2023-05-15T03:40:54.145Z,100.00
2023-05-15T03:43:57.072Z,100.00
2023-05-15T03:47:00.200Z,100.00
2023-05-15T03:50:03.134Z,100.00
2023-05-15T03:53:09.068Z,100.00
2023-05-15T03:56:11.880Z,100.00
2023-05-15T03:59:14.943Z,100.00
2023-05-15T04:02:17.689Z,100.00
2023-05-15T04:05:22.040Z,100.00
2023-05-15T04:08:25.105Z,100.00
2023-05-15T04:11:28.788Z,100.00
2023-05-15T04:14:31.627Z,100.00
2023-05-15T04:17:34.757Z,100.00
2023-05-15T04:20:37.780Z,100.00
2023-05-15T04:23:41.872Z,100.00
2023-05-15T04:26:44.523Z,100.00
2023-05-15T04:29:47.646Z,100.00
2023-05-15T04:32:52.098Z,100.00
2023-05-15T04:35:55.155Z,100.00
2023-05-15T04:38:58.170Z,100.00
2023-05-15T04:42:01.159Z,100.00
2023-05-15T04:45:04.302Z,100.00
2023-05-15T04:48:07.422Z,100.00
2023-05-15T04:51:10.222Z,100.00
2023-05-15T04:54:13.411Z,100.00
2023-05-15T04:57:16.137Z,100.00
2023-05-15T05:00:19.111Z,100.00
2023-05-15T05:03:21.870Z,100.00
2023-05-15T05:06:25.026Z,100.00
2023-05-15T05:09:27.786Z,100.00
2023-05-15T05:12:30.952Z,100.00
2023-05-15T05:15:33.560Z,100.00
2023-05-15T05:18:37.648Z,100.00
2023-05-15T05:21:40.401Z,100.00
2023-05-15T05:24:43.516Z,100.00
2023-05-15T05:27:46.198Z,100.00
2023-05-15T05:30:49.651Z,100.00
2023-05-15T05:33:52.966Z,100.00
2023-05-15T05:36:56.868Z,100.00
2023-05-15T05:39:59.578Z,100.00
2023-05-15T05:43:02.943Z,100.00
2023-05-15T05:46:05.707Z,100.00
2023-05-15T05:49:08.800Z,100.00
2023-05-15T05:52:11.610Z,100.00
2023-05-15T05:55:14.846Z,100.00
2023-05-15T05:58:25.450Z,100.00
2023-05-15T06:01:29.725Z,100.00
2023-05-15T06:04:34.381Z,100.00
2023-05-15T06:07:37.512Z,100.00
2023-05-15T06:10:40.764Z,100.00
2023-05-15T06:13:43.864Z,100.00
2023-05-15T06:16:46.959Z,100.00
2023-05-15T06:19:49.869Z,100.00
2023-05-15T06:22:52.920Z,100.00
2023-05-15T06:25:55.640Z,100.00
2023-05-15T06:28:58.549Z,100.00
2023-05-15T06:32:01.915Z,100.00
2023-05-15T06:35:05.581Z,100.00
2023-05-15T06:38:08.435Z,100.00
2023-05-15T06:41:11.644Z,100.00
2023-05-15T06:44:14.453Z,100.00
2023-05-15T06:47:17.585Z,98.16
2023-05-15T06:50:20.866Z,97.58
2023-05-15T06:53:24.108Z,97.32
2023-05-15T06:56:26.819Z,97.91
2023-05-15T06:59:29.749Z,96.33
2023-05-15T07:02:32.613Z,98.18
2023-05-15T07:05:35.639Z,98.74
2023-05-15T07:08:38.344Z,98.87
2023-05-15T07:11:42.318Z,98.63
2023-05-15T07:14:45.434Z,98.47
2023-05-15T07:17:48.733Z,98.99
2023-05-15T07:20:51.632Z,100.00
2023-05-15T07:23:54.875Z,98.59
2023-05-15T07:26:59.029Z,97.98
2023-05-15T07:30:04.367Z,97.45
2023-05-15T07:33:07.235Z,97.29
2023-05-15T07:36:10.310Z,97.48
2023-05-15T07:39:13.401Z,97.48
2023-05-15T07:42:16.388Z,97.26
2023-05-15T07:45:19.656Z,97.51
2023-05-15T07:48:23.406Z,97.44
2023-05-15T07:51:26.383Z,96.97
2023-05-15T07:54:31.840Z,96.23
2023-05-15T07:57:34.573Z,96.24
2023-05-15T08:00:38.310Z,96.14
2023-05-15T08:03:41.381Z,95.92
2023-05-15T08:06:44.624Z,95.97
2023-05-15T08:09:47.811Z,95.43
2023-05-15T08:12:51.059Z,95.42
2023-05-15T08:15:54.221Z,95.56
2023-05-15T08:19:01.707Z,94.95
2023-05-15T08:22:04.973Z,95.57
2023-05-15T08:25:08.996Z,95.36
2023-05-15T08:28:12.137Z,95.51
2023-05-15T08:31:14.898Z,95.38
2023-05-15T08:34:18.438Z,94.96
2023-05-15T08:37:21.330Z,93.84
2023-05-15T08:40:38.527Z,93.17
2023-05-15T08:43:44.296Z,91.49
2023-05-15T08:46:49.252Z,88.66
2023-05-15T08:50:15.373Z,88.91
2023-05-15T08:53:19.293Z,89.06
2023-05-15T08:56:22.142Z,87.70
2023-05-15T08:59:25.359Z,86.91
2023-05-15T09:02:28.204Z,84.55
2023-05-15T09:05:31.569Z,84.73
2023-05-15T09:08:35.596Z,84.80
2023-05-15T09:11:44.575Z,83.82
2023-05-15T09:14:47.271Z,82.95
2023-05-15T09:17:51.486Z,80.81
2023-05-15T09:20:56.057Z,79.55
2023-05-15T09:24:22.867Z,78.57
2023-05-15T09:27:26.606Z,76.66
2023-05-15T09:30:31.331Z,76.95
2023-05-15T09:33:36.306Z,76.55
2023-05-15T09:36:44.177Z,76.04
2023-05-15T09:39:47.982Z,78.73
2023-05-15T09:42:54.097Z,80.99
2023-05-15T09:45:56.808Z,79.19
2023-05-15T09:49:00.091Z,79.16
2023-05-15T09:52:03.692Z,80.18
2023-05-15T09:55:07.479Z,81.80
2023-05-15T09:58:15.588Z,80.67
2023-05-15T10:01:21.718Z,80.70
2023-05-15T10:04:24.839Z,80.17
2023-05-15T10:07:32.101Z,79.52
2023-05-15T10:10:35.312Z,78.39
2023-05-15T10:13:38.388Z,78.44
2023-05-15T10:16:41.860Z,77.73
2023-05-15T10:19:57.184Z,76.20
2023-05-15T10:23:04.288Z,74.06
2023-05-15T10:26:16.122Z,74.26
2023-05-15T10:29:21.488Z,72.22
2023-05-15T10:32:25.894Z,68.26
2023-05-15T10:35:29.504Z,69.56
2023-05-15T10:38:33.362Z,71.54
2023-05-15T10:41:38.876Z,72.73
2023-05-15T10:44:42.316Z,76.75
2023-05-15T10:47:46.475Z,76.43
2023-05-15T10:50:49.737Z,75.90
2023-05-15T10:53:53.100Z,75.80
2023-05-15T10:56:57.090Z,76.80
2023-05-15T11:00:01.457Z,77.36
2023-05-15T11:03:05.381Z,77.17
2023-05-15T11:06:10.467Z,75.54
2023-05-15T11:09:22.509Z,74.04
2023-05-15T11:12:25.927Z,71.82
2023-05-15T11:15:42.624Z,70.07
2023-05-15T11:18:45.686Z,69.91
2023-05-15T11:21:48.626Z,70.00
2023-05-15T11:24:55.935Z,70.11
2023-05-15T11:27:58.663Z,69.38
2023-05-15T11:31:07.120Z,70.16
2023-05-15T11:34:10.449Z,69.66
2023-05-15T11:37:19.740Z,68.83
2023-05-15T11:40:31.860Z,70.56
2023-05-15T11:43:38.177Z,73.33
2023-05-15T11:46:43.710Z,75.08
2023-05-15T11:49:49.893Z,74.00
2023-05-15T11:52:53.171Z,75.23
2023-05-15T11:55:56.954Z,74.58
2023-05-15T11:59:01.470Z,74.55
2023-05-15T12:02:06.684Z,75.65
2023-05-15T12:05:10.380Z,76.05
2023-05-15T12:08:13.626Z,76.29
2023-05-15T12:11:16.545Z,74.26
2023-05-15T12:14:29.227Z,74.72
2023-05-15T12:17:33.500Z,72.94
2023-05-15T12:20:38.138Z,73.79
2023-05-15T12:23:41.348Z,72.80
2023-05-15T12:26:44.045Z,69.27
2023-05-15T12:29:47.224Z,67.20
2023-05-15T12:32:50.503Z,68.39
2023-05-15T12:36:01.126Z,68.45
2023-05-15T12:39:08.155Z,71.31
2023-05-15T12:42:11.642Z,70.50
2023-05-15T12:45:19.635Z,70.79
2023-05-15T12:48:23.404Z,72.60
2023-05-15T12:51:27.632Z,73.11
2023-05-15T12:54:30.617Z,73.43
2023-05-15T12:57:33.894Z,75.35
2023-05-15T13:00:38.858Z,74.71
2023-05-15T13:03:43.512Z,74.72
2023-05-15T13:06:47.916Z,74.48
2023-05-15T13:10:11.773Z,74.88
2023-05-15T13:13:16.978Z,75.36
2023-05-15T13:16:30.055Z,74.11
2023-05-15T13:19:33.140Z,71.15
2023-05-15T13:22:35.926Z,68.22
2023-05-15T13:25:39.108Z,66.43
2023-05-15T13:28:41.904Z,66.56
2023-05-15T13:31:45.061Z,63.76
2023-05-15T13:34:47.748Z,63.62
2023-05-15T13:37:51.208Z,62.57
2023-05-15T13:40:53.949Z,62.15
2023-05-15T13:43:57.218Z,62.04
2023-05-15T13:47:04.428Z,61.94
2023-05-15T13:50:13.535Z,59.99
2023-05-15T13:53:17.197Z,60.38
2023-05-15T13:56:20.252Z,59.58
2023-05-15T13:59:23.023Z,60.02
2023-05-15T14:02:26.913Z,59.53
2023-05-15T14:05:30.277Z,57.78
2023-05-15T14:08:32.975Z,57.77
2023-05-15T14:11:36.145Z,56.68
2023-05-15T14:14:38.800Z,56.83
2023-05-15T14:17:43.293Z,55.57
2023-05-15T14:20:46.086Z,55.27
2023-05-15T14:23:49.203Z,55.07
2023-05-15T14:26:51.883Z,56.29
2023-05-15T14:29:56.961Z,57.67
2023-05-15T14:33:00.243Z,58.42
2023-05-15T14:36:04.766Z,60.08
2023-05-15T14:39:07.482Z,60.46
2023-05-15T14:42:11.280Z,60.30
2023-05-15T14:45:14.537Z,60.82
2023-05-15T14:48:17.951Z,59.73
2023-05-15T14:51:20.753Z,62.81
2023-05-15T14:54:23.792Z,60.42
2023-05-15T14:57:26.693Z,59.78
2023-05-15T15:00:29.809Z,58.64
2023-05-15T15:03:34.168Z,58.28
2023-05-15T15:06:37.528Z,59.09
2023-05-15T15:09:40.275Z,58.97
2023-05-15T15:12:43.221Z,59.31
2023-05-15T15:15:46.704Z,59.70
2023-05-15T15:18:49.915Z,59.30
2023-05-15T15:21:52.553Z,58.56
2023-05-15T15:24:55.942Z,58.61
2023-05-15T15:27:58.613Z,58.62
2023-05-15T15:31:01.741Z,59.37
2023-05-15T15:34:05.805Z,58.86
2023-05-15T15:37:09.003Z,58.90
2023-05-15T15:40:12.247Z,59.09
2023-05-15T15:43:15.281Z,58.58
2023-05-15T15:46:18.147Z,58.42
2023-05-15T15:49:21.438Z,59.38
2023-05-15T15:52:24.316Z,59.29
2023-05-15T15:55:27.308Z,58.20
2023-05-15T15:58:30.488Z,57.74
2023-05-15T16:01:33.627Z,59.06
2023-05-15T16:04:37.186Z,59.74
2023-05-15T16:07:39.862Z,59.15
2023-05-15T16:10:42.999Z,59.93
2023-05-15T16:13:45.955Z,59.14
2023-05-15T16:16:49.385Z,59.97
2023-05-15T16:19:52.037Z,59.80
2023-05-15T16:22:55.547Z,60.61
2023-05-15T16:25:58.205Z,60.95
2023-05-15T16:29:01.226Z,62.21
2023-05-15T16:32:04.103Z,62.17
2023-05-15T16:35:07.947Z,62.26
2023-05-15T16:38:11.283Z,62.78
2023-05-15T16:41:14.475Z,63.07
2023-05-15T16:44:17.339Z,63.71
2023-05-15T16:47:20.383Z,63.93
2023-05-15T16:50:23.219Z,63.82
2023-05-15T16:53:26.210Z,64.06
2023-05-15T16:56:29.400Z,64.39
2023-05-15T16:59:32.481Z,64.58
2023-05-15T17:02:36.197Z,64.88
2023-05-15T17:05:40.243Z,65.20
2023-05-15T17:08:43.720Z,66.14
2023-05-15T17:11:46.714Z,65.99
2023-05-15T17:14:49.412Z,66.16
2023-05-15T17:17:52.694Z,66.68
2023-05-15T17:20:55.492Z,66.16
2023-05-15T17:23:58.565Z,65.92
2023-05-15T17:27:01.549Z,65.95
2023-05-15T17:30:05.934Z,65.87
2023-05-15T17:33:08.707Z,66.11
2023-05-15T17:36:11.901Z,66.37
2023-05-15T17:39:14.682Z,66.55
2023-05-15T17:42:17.730Z,67.99
2023-05-15T17:45:20.392Z,68.67
2023-05-15T17:48:23.398Z,68.66
2023-05-15T17:51:26.445Z,68.43
2023-05-15T17:54:29.596Z,69.20
2023-05-15T17:57:32.377Z,68.92
2023-05-15T18:00:35.376Z,69.38
2023-05-15T18:03:40.257Z,69.95
2023-05-15T18:06:44.435Z,70.48
2023-05-15T18:09:47.580Z,71.99
2023-05-15T18:12:51.235Z,72.96
2023-05-15T18:15:54.328Z,74.43
2023-05-15T18:18:57.236Z,75.49
2023-05-15T18:22:03.389Z,77.20
2023-05-15T18:25:06.802Z,77.72
2023-05-15T18:28:10.048Z,78.79
2023-05-15T18:31:12.924Z,79.41
2023-05-15T18:34:16.506Z,79.37
2023-05-15T18:37:19.227Z,80.07
2023-05-15T18:40:22.326Z,81.32
2023-05-15T18:43:25.270Z,82.31
2023-05-15T18:46:28.481Z,82.71
2023-05-15T18:49:31.789Z,81.19
2023-05-15T18:52:35.204Z,81.72
2023-05-15T18:55:39.500Z,81.81
2023-05-15T18:58:42.509Z,81.71
2023-05-15T19:01:46.495Z,80.84
2023-05-15T19:04:49.778Z,81.16
2023-05-15T19:07:52.616Z,80.94
2023-05-15T19:10:55.739Z,81.66
2023-05-15T19:13:58.390Z,82.01
2023-05-15T19:17:01.838Z,81.07
2023-05-15T19:20:06.397Z,81.88
2023-05-15T19:23:10.541Z,81.70
2023-05-15T19:26:13.472Z,82.14
2023-05-15T19:29:17.073Z,81.76
2023-05-15T19:32:20.276Z,82.82
2023-05-15T19:35:23.556Z,82.27
2023-05-15T19:38:26.760Z,82.70
2023-05-15T19:41:29.835Z,83.14
2023-05-15T19:44:32.611Z,83.57
2023-05-15T19:47:35.720Z,83.69
2023-05-15T19:50:40.060Z,83.77
2023-05-15T19:53:43.936Z,83.87
2023-05-15T19:56:47.094Z,83.85
2023-05-15T19:59:50.228Z,84.17
2023-05-15T20:02:53.211Z,83.71
2023-05-15T20:05:56.191Z,83.51
2023-05-15T20:08:59.748Z,83.39
2023-05-15T20:12:03.481Z,83.88
2023-05-15T20:15:07.133Z,82.54
2023-05-15T20:18:10.269Z,83.76
2023-05-15T20:21:12.940Z,84.16
2023-05-15T20:24:17.613Z,84.89
2023-05-15T20:27:21.297Z,84.89
2023-05-15T20:30:25.496Z,85.69
2023-05-15T20:33:28.355Z,85.12
2023-05-15T20:36:32.726Z,85.09
2023-05-15T20:39:35.498Z,85.51
2023-05-15T20:42:39.872Z,86.36
2023-05-15T20:45:42.469Z,86.36
2023-05-15T20:48:45.784Z,85.87
2023-05-15T20:51:48.991Z,86.68
2023-05-15T20:54:51.957Z,85.63
2023-05-15T20:57:55.531Z,85.61
2023-05-15T21:01:01.341Z,86.24
2023-05-15T21:04:04.333Z,86.50
2023-05-15T21:07:07.384Z,85.82
2023-05-15T21:10:10.314Z,86.24
2023-05-15T21:13:14.206Z,86.98
2023-05-15T21:16:17.182Z,87.05
2023-05-15T21:19:20.423Z,87.04
2023-05-15T21:22:23.635Z,86.67
2023-05-15T21:25:26.548Z,86.52
2023-05-15T21:28:29.984Z,86.85
2023-05-15T21:31:33.102Z,87.28
2023-05-15T21:34:36.165Z,87.92
2023-05-15T21:37:39.266Z,87.05
2023-05-15T21:40:42.252Z,87.41
2023-05-15T21:43:45.376Z,88.12
2023-05-15T21:46:48.056Z,88.39
2023-05-15T21:49:51.479Z,88.63
2023-05-15T21:52:54.216Z,88.41
2023-05-15T21:56:01.283Z,88.97
2023-05-15T21:59:04.069Z,87.96
2023-05-15T22:02:07.592Z,86.90
2023-05-15T22:05:10.822Z,87.37
2023-05-15T22:08:14.155Z,88.02
2023-05-15T22:11:17.370Z,87.44
2023-05-15T22:14:20.228Z,87.49
2023-05-15T22:17:24.026Z,87.64
2023-05-15T22:20:27.824Z,88.76
2023-05-15T22:23:31.658Z,88.80
2023-05-15T22:26:34.564Z,89.52
2023-05-15T22:29:37.827Z,89.10
2023-05-15T22:32:41.551Z,90.40
2023-05-15T22:35:44.773Z,90.32
2023-05-15T22:38:47.474Z,88.86
2023-05-15T22:41:50.750Z,88.68
2023-05-15T22:44:57.505Z,87.85
2023-05-15T22:48:01.769Z,87.87
2023-05-15T22:51:05.285Z,89.43
2023-05-15T22:54:08.338Z,89.40
2023-05-15T22:57:11.126Z,88.38
2023-05-15T23:00:15.085Z,88.80
2023-05-15T23:03:18.069Z,88.03
2023-05-15T23:06:21.965Z,88.97
2023-05-15T23:09:24.669Z,89.05
2023-05-15T23:12:28.020Z,88.74
2023-05-15T23:15:30.807Z,88.94
2023-05-15T23:18:33.871Z,88.87
2023-05-15T23:21:36.890Z,88.58
2023-05-15T23:24:40.500Z,88.05
2023-05-15T23:27:43.344Z,88.94
2023-05-15T23:30:46.397Z,89.20
2023-05-15T23:33:49.222Z,89.74
2023-05-15T23:36:52.345Z,90.24
2023-05-15T23:39:57.708Z,90.38
2023-05-15T23:43:00.706Z,91.09
2023-05-15T23:46:03.566Z,91.20
2023-05-15T23:49:06.928Z,90.56
2023-05-15T23:52:09.876Z,91.05
2023-05-15T23:55:13.287Z,90.21
2023-05-15T23:58:15.989Z,89.39
